createdAt,value
2017-11-14T00:00:11.827Z,0
2017-11-14T00:00:52.338Z,0
2017-11-14T00:01:32.901Z,0
2017-11-14T00:02:13.472Z,0
2017-11-14T00:02:54.022Z,0
2017-11-14T00:03:34.558Z,0
2017-11-14T00:04:15.145Z,0
2017-11-14T00:04:55.722Z,0
2017-11-14T00:05:36.244Z,0
2017-11-14T00:06:16.746Z,0
2017-11-14T00:06:57.335Z,0
2017-11-14T00:07:37.895Z,0
2017-11-14T00:08:18.434Z,0
2017-11-14T00:08:58.992Z,0
2017-11-14T00:09:39.545Z,0
2017-11-14T00:10:20.053Z,0
2017-11-14T00:11:00.614Z,0
2017-11-14T00:11:41.196Z,0
2017-11-14T00:12:21.855Z,0
2017-11-14T00:13:02.259Z,0
2017-11-14T00:13:42.913Z,0
2017-11-14T00:14:23.444Z,0
2017-11-14T00:15:03.997Z,0
2017-11-14T00:15:44.561Z,0
2017-11-14T00:16:25.082Z,0
2017-11-14T00:17:05.683Z,0
2017-11-14T00:17:46.166Z,0
2017-11-14T00:18:26.771Z,0
2017-11-14T00:19:07.257Z,0
2017-11-14T00:19:47.795Z,0
2017-11-14T00:20:28.340Z,0
2017-11-14T00:21:08.956Z,0
2017-11-14T00:21:49.457Z,0
2017-11-14T00:22:29.986Z,0
2017-11-14T00:23:10.523Z,0
2017-11-14T00:23:51.041Z,0
2017-11-14T00:24:31.600Z,0
2017-11-14T00:25:12.200Z,0
2017-11-14T00:25:52.739Z,0
2017-11-14T00:26:33.726Z,0
2017-11-14T00:27:14.256Z,0
2017-11-14T00:27:54.798Z,0
2017-11-14T00:28:35.340Z,0
2017-11-14T00:29:15.906Z,0
2017-11-14T00:29:56.447Z,0
2017-11-14T00:30:37.863Z,0
2017-11-14T00:31:18.390Z,0
2017-11-14T00:31:58.950Z,0
2017-11-14T00:32:39.461Z,0
2017-11-14T00:33:20.012Z,0
2017-11-14T00:34:00.570Z,0
2017-11-14T00:34:41.145Z,0
2017-11-14T00:35:21.670Z,0
2017-11-14T00:36:02.200Z,0
2017-11-14T00:36:42.709Z,0
2017-11-14T00:37:23.241Z,0
2017-11-14T00:38:03.768Z,0
2017-11-14T00:38:44.296Z,0
2017-11-14T00:39:24.824Z,0
2017-11-14T00:40:05.378Z,0
2017-11-14T00:40:45.942Z,0
2017-11-14T00:41:26.482Z,0
2017-11-14T00:42:07.016Z,0
2017-11-14T00:42:47.573Z,0
2017-11-14T00:43:28.205Z,0
2017-11-14T00:44:08.715Z,0
2017-11-14T00:44:49.270Z,0
2017-11-14T00:45:29.834Z,0
2017-11-14T00:46:10.405Z,0
2017-11-14T00:46:50.978Z,0
2017-11-14T00:47:31.509Z,0
2017-11-14T00:48:12.069Z,0
2017-11-14T00:48:52.624Z,0
2017-11-14T00:49:33.192Z,0
2017-11-14T00:50:13.721Z,0
2017-11-14T00:50:54.393Z,0
2017-11-14T00:51:34.991Z,0
2017-11-14T00:52:15.527Z,0
2017-11-14T00:52:56.047Z,0
2017-11-14T00:53:36.611Z,0
2017-11-14T00:54:17.160Z,0
2017-11-14T00:54:57.752Z,0
2017-11-14T00:55:38.326Z,0
2017-11-14T00:56:18.895Z,0
2017-11-14T00:56:59.461Z,0
2017-11-14T00:57:39.984Z,0
2017-11-14T00:58:20.517Z,0
2017-11-14T00:59:01.062Z,0
2017-11-14T00:59:41.598Z,0
2017-11-14T01:00:22.149Z,0
2017-11-14T01:01:02.696Z,0
2017-11-14T01:01:43.284Z,0
2017-11-14T01:02:23.808Z,0
2017-11-14T01:03:04.356Z,0
2017-11-14T01:03:44.888Z,0
2017-11-14T01:04:25.429Z,0
2017-11-14T01:05:05.962Z,0
2017-11-14T01:05:46.504Z,0
2017-11-14T01:06:27.004Z,0
2017-11-14T01:07:07.575Z,0
2017-11-14T01:07:48.136Z,0
2017-11-14T01:08:28.686Z,0
2017-11-14T01:09:09.201Z,0
2017-11-14T01:09:49.762Z,0
2017-11-14T01:10:30.312Z,0
2017-11-14T01:11:10.844Z,0
2017-11-14T01:11:51.364Z,0
2017-11-14T01:12:31.912Z,0
2017-11-14T01:13:12.451Z,0
2017-11-14T01:13:53.003Z,0
2017-11-14T01:14:33.531Z,0
2017-11-14T01:15:14.093Z,0
2017-11-14T01:15:54.674Z,0
2017-11-14T01:16:35.246Z,0
2017-11-14T01:17:15.830Z,0
2017-11-14T01:17:56.359Z,0
2017-11-14T01:18:36.949Z,0
2017-11-14T01:19:17.458Z,0
2017-11-14T01:19:58.032Z,0
2017-11-14T01:20:38.537Z,0
2017-11-14T01:21:19.104Z,0
2017-11-14T01:21:59.621Z,0
2017-11-14T01:22:40.177Z,0
2017-11-14T01:23:20.716Z,0
2017-11-14T01:24:01.272Z,0
2017-11-14T01:24:41.829Z,0
2017-11-14T01:25:22.368Z,0
2017-11-14T01:26:02.932Z,0
2017-11-14T01:26:43.479Z,0
2017-11-14T01:27:24.029Z,0
2017-11-14T01:28:04.592Z,0
2017-11-14T01:28:45.119Z,0
2017-11-14T01:29:25.653Z,0
2017-11-14T01:30:06.211Z,0
2017-11-14T01:30:46.747Z,0
2017-11-14T01:31:27.271Z,0
2017-11-14T01:32:07.881Z,0
2017-11-14T01:32:48.367Z,0
2017-11-14T01:33:28.895Z,0
2017-11-14T01:34:09.414Z,0
2017-11-14T01:34:49.971Z,0
2017-11-14T01:35:30.489Z,0
2017-11-14T01:36:11.043Z,0
2017-11-14T01:36:51.597Z,0
2017-11-14T01:37:32.149Z,0
2017-11-14T01:38:12.661Z,0
2017-11-14T01:38:53.222Z,0
2017-11-14T01:39:33.729Z,0
2017-11-14T01:40:14.275Z,0
2017-11-14T01:40:54.810Z,0
2017-11-14T01:41:35.362Z,0
2017-11-14T01:42:15.951Z,0
2017-11-14T01:42:56.487Z,0
2017-11-14T01:43:37.030Z,0
2017-11-14T01:44:17.567Z,0
2017-11-14T01:44:58.117Z,0
2017-11-14T01:45:38.683Z,0
2017-11-14T01:46:19.226Z,0
2017-11-14T01:46:59.786Z,0
2017-11-14T01:47:40.319Z,0
2017-11-14T01:48:20.889Z,0
2017-11-14T01:49:01.440Z,0
2017-11-14T01:49:42.002Z,0
2017-11-14T01:50:22.557Z,0
2017-11-14T01:51:03.109Z,0
2017-11-14T01:51:43.646Z,0
2017-11-14T01:52:24.192Z,0
2017-11-14T01:53:04.746Z,0
2017-11-14T01:53:45.278Z,0
2017-11-14T01:54:25.814Z,0
2017-11-14T01:55:06.364Z,0
2017-11-14T01:55:46.881Z,0
2017-11-14T01:56:27.425Z,0
2017-11-14T01:57:07.953Z,0
2017-11-14T01:57:48.508Z,0
2017-11-14T01:58:29.061Z,0
2017-11-14T01:59:09.593Z,0
2017-11-14T01:59:50.122Z,0
2017-11-14T02:00:30.665Z,0
2017-11-14T02:01:11.209Z,0
2017-11-14T02:01:51.766Z,0
2017-11-14T02:02:32.346Z,0
2017-11-14T02:03:12.866Z,0
2017-11-14T02:03:53.417Z,0
2017-11-14T02:04:34.019Z,0
2017-11-14T02:05:14.558Z,0
2017-11-14T02:05:55.098Z,0
2017-11-14T02:06:35.614Z,0
2017-11-14T02:07:16.181Z,0
2017-11-14T02:07:56.726Z,0
2017-11-14T02:08:37.280Z,0
2017-11-14T02:09:17.824Z,0
2017-11-14T02:09:58.328Z,0
2017-11-14T02:10:38.876Z,0
2017-11-14T02:11:19.434Z,0
2017-11-14T02:11:59.996Z,0
2017-11-14T02:12:40.547Z,0
2017-11-14T02:13:21.076Z,0
2017-11-14T02:14:01.677Z,0
2017-11-14T02:14:42.217Z,0
2017-11-14T02:15:22.785Z,0
2017-11-14T02:16:03.327Z,0
2017-11-14T02:16:43.906Z,0
2017-11-14T02:17:24.431Z,0
2017-11-14T02:18:04.980Z,0
2017-11-14T02:18:45.514Z,0
2017-11-14T02:19:26.072Z,0
2017-11-14T02:20:06.626Z,0
2017-11-14T02:20:47.134Z,0
2017-11-14T02:21:27.705Z,0
2017-11-14T02:22:08.253Z,0
2017-11-14T02:22:48.796Z,0
2017-11-14T02:23:29.345Z,0
2017-11-14T02:24:09.901Z,0
2017-11-14T02:24:50.435Z,0
2017-11-14T02:25:31.009Z,0
2017-11-14T02:26:11.519Z,0
2017-11-14T02:26:52.075Z,0
2017-11-14T02:27:32.646Z,0
2017-11-14T02:28:13.217Z,0
2017-11-14T02:28:53.753Z,0
2017-11-14T02:29:34.290Z,0
2017-11-14T02:30:14.869Z,0
2017-11-14T02:30:55.413Z,0
2017-11-14T02:31:35.958Z,0
2017-11-14T02:32:16.514Z,0
2017-11-14T02:32:57.087Z,0
2017-11-14T02:33:37.641Z,0
2017-11-14T02:34:18.286Z,0
2017-11-14T02:34:58.817Z,0
2017-11-14T02:35:39.342Z,0
2017-11-14T02:36:19.876Z,0
2017-11-14T02:37:00.411Z,0
2017-11-14T02:37:40.980Z,0
2017-11-14T02:38:21.474Z,0
2017-11-14T02:39:02.019Z,0
2017-11-14T02:39:42.568Z,0
2017-11-14T02:40:23.114Z,0
2017-11-14T02:41:03.738Z,0
2017-11-14T02:41:44.313Z,0
2017-11-14T02:42:24.861Z,0
2017-11-14T02:43:05.384Z,0
2017-11-14T02:43:45.951Z,0
2017-11-14T02:44:26.475Z,0
2017-11-14T02:45:06.996Z,0
2017-11-14T02:45:47.561Z,0
2017-11-14T02:46:28.089Z,0
2017-11-14T02:47:08.671Z,0
2017-11-14T02:47:49.185Z,0
2017-11-14T02:48:29.707Z,0
2017-11-14T02:49:10.248Z,0
2017-11-14T02:49:50.814Z,0
2017-11-14T02:50:31.346Z,0
2017-11-14T02:51:11.919Z,0
2017-11-14T02:51:52.445Z,0
2017-11-14T02:52:32.978Z,0
2017-11-14T02:53:13.507Z,0
2017-11-14T02:53:54.092Z,0
2017-11-14T02:54:34.632Z,0
2017-11-14T02:55:15.199Z,0
2017-11-14T02:55:55.752Z,0
2017-11-14T02:56:36.305Z,0
2017-11-14T02:57:16.867Z,0
2017-11-14T02:57:57.430Z,0
2017-11-14T02:58:37.980Z,0
2017-11-14T02:59:18.543Z,0
2017-11-14T02:59:59.145Z,0
2017-11-14T03:00:39.688Z,0
2017-11-14T03:01:20.180Z,0
2017-11-14T03:02:00.725Z,0
2017-11-14T03:02:41.292Z,0
2017-11-14T03:03:21.833Z,0
2017-11-14T03:04:02.399Z,0
2017-11-14T03:04:42.940Z,0
2017-11-14T03:05:23.482Z,0
2017-11-14T03:06:04.040Z,0
2017-11-14T03:06:44.586Z,0
2017-11-14T03:07:25.205Z,0
2017-11-14T03:08:05.753Z,0
2017-11-14T03:08:46.268Z,0
2017-11-14T03:09:26.804Z,0
2017-11-14T03:10:07.352Z,0
2017-11-14T03:10:47.907Z,0
2017-11-14T03:11:28.442Z,0
2017-11-14T03:12:09.024Z,0
2017-11-14T03:12:49.654Z,0
2017-11-14T03:13:30.167Z,0
2017-11-14T03:14:10.716Z,0
2017-11-14T03:14:51.272Z,0
2017-11-14T03:15:31.795Z,0
2017-11-14T03:16:12.336Z,0
2017-11-14T03:16:52.886Z,0
2017-11-14T03:17:33.438Z,0
2017-11-14T03:18:14.003Z,0
2017-11-14T03:18:54.543Z,0
2017-11-14T03:19:35.100Z,0
2017-11-14T03:20:15.627Z,0
2017-11-14T03:20:56.168Z,0
2017-11-14T03:21:36.713Z,0
2017-11-14T03:22:17.262Z,0
2017-11-14T03:22:57.832Z,0
2017-11-14T03:23:38.362Z,0
2017-11-14T03:24:18.907Z,0
2017-11-14T03:24:59.475Z,0
2017-11-14T03:25:40.075Z,0
2017-11-14T03:26:20.604Z,0
2017-11-14T03:27:01.162Z,0
2017-11-14T03:27:41.703Z,0
2017-11-14T03:28:22.255Z,0
2017-11-14T03:29:02.797Z,0
2017-11-14T03:29:43.322Z,0
2017-11-14T03:30:23.862Z,0
2017-11-14T03:31:04.389Z,0
2017-11-14T03:31:44.977Z,0
2017-11-14T03:32:25.528Z,0
2017-11-14T03:33:06.074Z,0
2017-11-14T03:33:46.624Z,0
2017-11-14T03:34:27.167Z,0
2017-11-14T03:35:07.711Z,0
2017-11-14T03:35:48.584Z,0
2017-11-14T03:36:28.829Z,0
2017-11-14T03:37:09.357Z,0
2017-11-14T03:37:49.954Z,0
2017-11-14T03:38:30.440Z,0
2017-11-14T03:39:10.990Z,0
2017-11-14T03:39:51.519Z,0
2017-11-14T03:40:32.063Z,0
2017-11-14T03:41:12.576Z,0
2017-11-14T03:41:53.137Z,0
2017-11-14T03:42:33.673Z,0
2017-11-14T03:43:14.213Z,0
2017-11-14T03:43:54.790Z,0
2017-11-14T03:44:35.542Z,0
2017-11-14T03:45:16.087Z,0
2017-11-14T03:45:56.647Z,0
2017-11-14T03:46:37.211Z,0
2017-11-14T03:47:17.752Z,0
2017-11-14T03:47:58.312Z,0
2017-11-14T03:48:38.865Z,0
2017-11-14T03:49:19.368Z,0
2017-11-14T03:49:59.904Z,0
2017-11-14T03:50:40.439Z,0
2017-11-14T03:51:20.979Z,0
2017-11-14T03:52:01.540Z,0
2017-11-14T03:52:42.092Z,0
2017-11-14T03:53:22.642Z,0
2017-11-14T03:54:03.166Z,0
2017-11-14T03:54:45.578Z,0
2017-11-14T03:55:26.118Z,0
2017-11-14T03:56:06.619Z,0
2017-11-14T03:56:47.190Z,0
2017-11-14T03:57:27.742Z,0
2017-11-14T03:58:11.140Z,0
2017-11-14T03:58:51.697Z,0
2017-11-14T03:59:32.234Z,0
2017-11-14T04:00:12.786Z,0
2017-11-14T04:00:53.333Z,0
2017-11-14T04:01:33.892Z,0
2017-11-14T04:02:14.440Z,0
2017-11-14T04:02:54.988Z,0
2017-11-14T04:03:35.527Z,0
2017-11-14T04:04:16.081Z,0
2017-11-14T04:04:56.618Z,0
2017-11-14T04:05:37.183Z,0
2017-11-14T04:06:17.722Z,0
2017-11-14T04:06:58.252Z,0
2017-11-14T04:07:38.789Z,0
2017-11-14T04:08:19.327Z,0
2017-11-14T04:08:59.896Z,0
2017-11-14T04:09:40.426Z,0
2017-11-14T04:10:20.970Z,0
2017-11-14T04:11:01.521Z,0
2017-11-14T04:11:42.087Z,0
2017-11-14T04:12:22.618Z,0
2017-11-14T04:13:03.165Z,0
2017-11-14T04:13:43.716Z,0
2017-11-14T04:14:24.277Z,0
2017-11-14T04:15:04.828Z,0
2017-11-14T04:15:45.435Z,0
2017-11-14T04:16:25.940Z,0
2017-11-14T04:17:06.494Z,0
2017-11-14T04:17:47.052Z,0
2017-11-14T04:18:27.601Z,0
2017-11-14T04:19:08.122Z,0
2017-11-14T04:19:48.688Z,0
2017-11-14T04:20:29.225Z,0
2017-11-14T04:21:09.778Z,0
2017-11-14T04:21:50.343Z,0
2017-11-14T04:22:30.957Z,0
2017-11-14T04:23:11.454Z,0
2017-11-14T04:23:52.027Z,0
2017-11-14T04:24:32.577Z,0
2017-11-14T04:25:13.163Z,0
2017-11-14T04:25:53.686Z,0
2017-11-14T04:26:34.246Z,0
2017-11-14T04:27:14.790Z,0
2017-11-14T04:27:55.361Z,0
2017-11-14T04:28:35.886Z,0
2017-11-14T04:29:16.439Z,0
2017-11-14T04:29:56.982Z,0
2017-11-14T04:30:37.537Z,0
2017-11-14T04:31:18.099Z,0
2017-11-14T04:31:58.655Z,0
2017-11-14T04:32:39.206Z,0
2017-11-14T04:33:19.768Z,0
2017-11-14T04:34:00.403Z,0
2017-11-14T04:34:40.937Z,0
2017-11-14T04:35:21.502Z,0
2017-11-14T04:36:02.052Z,0
2017-11-14T04:36:42.604Z,0
2017-11-14T04:37:23.173Z,0
2017-11-14T04:38:03.699Z,0
2017-11-14T04:38:44.231Z,0
2017-11-14T04:39:24.786Z,0
2017-11-14T04:40:05.358Z,0
2017-11-14T04:40:45.917Z,0
2017-11-14T04:41:27.386Z,0
2017-11-14T04:42:07.969Z,0
2017-11-14T04:42:48.494Z,0
2017-11-14T04:43:29.036Z,0
2017-11-14T04:44:09.629Z,0
2017-11-14T04:44:50.143Z,0
2017-11-14T04:45:30.699Z,0
2017-11-14T04:46:11.261Z,0
2017-11-14T04:46:51.798Z,0
2017-11-14T04:47:32.372Z,0
2017-11-14T04:48:12.903Z,0
2017-11-14T04:48:53.467Z,0
2017-11-14T04:49:33.985Z,0
2017-11-14T04:50:14.816Z,0
2017-11-14T04:50:55.363Z,0
2017-11-14T04:51:35.902Z,0
2017-11-14T04:52:16.457Z,0
2017-11-14T04:52:56.994Z,0
2017-11-14T04:53:37.587Z,0
2017-11-14T04:54:18.117Z,0
2017-11-14T04:54:58.710Z,0
2017-11-14T04:55:39.277Z,0
2017-11-14T04:56:19.820Z,0
2017-11-14T04:57:00.367Z,0
2017-11-14T04:57:40.917Z,0
2017-11-14T04:58:21.470Z,0
2017-11-14T04:59:02.032Z,0
2017-11-14T04:59:42.549Z,0
2017-11-14T05:00:23.095Z,0
2017-11-14T05:01:03.652Z,0
2017-11-14T05:01:44.169Z,0
2017-11-14T05:02:24.720Z,0
2017-11-14T05:03:05.271Z,0
2017-11-14T05:03:45.806Z,0
2017-11-14T05:04:26.361Z,0
2017-11-14T05:05:06.914Z,0
2017-11-14T05:05:47.447Z,0
2017-11-14T05:06:27.993Z,0
2017-11-14T05:07:08.566Z,0
2017-11-14T05:07:49.102Z,0
2017-11-14T05:08:29.631Z,0
2017-11-14T05:09:10.177Z,0
2017-11-14T05:09:50.734Z,0
2017-11-14T05:10:31.256Z,0
2017-11-14T05:11:11.785Z,0
2017-11-14T05:11:52.315Z,0
2017-11-14T05:12:32.858Z,0
2017-11-14T05:13:13.377Z,0
2017-11-14T05:13:53.912Z,0
2017-11-14T05:14:34.420Z,0
2017-11-14T05:16:47.228Z,0
2017-11-14T05:17:27.787Z,0
2017-11-14T05:18:08.351Z,0
2017-11-14T05:18:48.903Z,0
2017-11-14T05:19:29.466Z,0
2017-11-14T05:20:10.005Z,0
2017-11-14T05:20:50.568Z,0
2017-11-14T05:21:31.111Z,0
2017-11-14T05:22:11.766Z,0
2017-11-14T05:22:52.301Z,0
2017-11-14T05:23:32.854Z,0
2017-11-14T05:24:13.415Z,0
2017-11-14T05:24:53.988Z,0
2017-11-14T05:25:34.553Z,0
2017-11-14T05:26:15.118Z,0
2017-11-14T05:26:55.664Z,0
2017-11-14T05:27:36.265Z,0
2017-11-14T05:28:16.772Z,0
2017-11-14T05:28:57.379Z,0
2017-11-14T05:29:37.932Z,0
2017-11-14T05:30:18.472Z,0
2017-11-14T05:30:59.109Z,0
2017-11-14T05:31:39.636Z,0
2017-11-14T05:32:20.152Z,0
2017-11-14T05:33:00.804Z,0
2017-11-14T05:33:41.332Z,0
2017-11-14T05:34:22.058Z,0
2017-11-14T05:35:02.471Z,0
2017-11-14T05:35:43.012Z,0
2017-11-14T05:36:23.576Z,0
2017-11-14T05:37:04.125Z,0
2017-11-14T05:37:44.683Z,0
2017-11-14T05:38:25.227Z,0
2017-11-14T05:39:05.766Z,0
2017-11-14T05:39:46.667Z,0
2017-11-14T05:40:27.252Z,0
2017-11-14T05:41:07.764Z,0
2017-11-14T05:41:48.250Z,0
2017-11-14T05:42:28.790Z,0
2017-11-14T05:43:09.369Z,0
2017-11-14T05:43:49.880Z,0
2017-11-14T05:44:30.570Z,0
2017-11-14T05:45:11.046Z,0
2017-11-14T05:45:51.676Z,0
2017-11-14T05:46:32.184Z,0
2017-11-14T05:47:12.715Z,0
2017-11-14T05:47:53.325Z,0
2017-11-14T05:48:33.799Z,0
2017-11-14T05:49:14.333Z,0
2017-11-14T05:49:54.900Z,0
2017-11-14T05:50:35.410Z,0
2017-11-14T05:51:16.166Z,0
2017-11-14T05:51:56.674Z,0
2017-11-14T05:52:37.213Z,0
2017-11-14T05:53:17.885Z,0
2017-11-14T05:53:58.430Z,0
2017-11-14T05:54:38.995Z,0
2017-11-14T05:55:19.508Z,0
2017-11-14T05:56:00.559Z,0
2017-11-14T05:56:41.135Z,0
2017-11-14T05:57:21.686Z,0
2017-11-14T05:58:02.239Z,0
2017-11-14T05:58:42.791Z,0
2017-11-14T05:59:23.341Z,0
2017-11-14T06:00:03.868Z,0
2017-11-14T06:00:44.394Z,0
2017-11-14T06:01:24.950Z,0
2017-11-14T06:02:05.526Z,0
2017-11-14T06:02:46.064Z,0
2017-11-14T06:03:26.621Z,0
2017-11-14T06:04:07.173Z,0
2017-11-14T06:04:47.720Z,0
2017-11-14T06:05:28.290Z,0
2017-11-14T06:06:08.850Z,0
2017-11-14T06:06:49.389Z,0
2017-11-14T06:07:29.914Z,0
2017-11-14T06:08:10.494Z,0
2017-11-14T06:08:51.061Z,0
2017-11-14T06:09:31.842Z,0
2017-11-14T06:10:12.244Z,0
2017-11-14T06:10:52.773Z,0
2017-11-14T06:11:33.365Z,4
2017-11-14T06:12:13.923Z,4
2017-11-14T06:12:54.451Z,0
2017-11-14T06:13:35.073Z,4
2017-11-14T06:14:15.675Z,4
2017-11-14T06:14:56.208Z,4
2017-11-14T06:15:36.820Z,4
2017-11-14T06:16:17.312Z,4
2017-11-14T06:16:57.973Z,4
2017-11-14T06:17:38.471Z,8
2017-11-14T06:18:18.976Z,4
2017-11-14T06:18:59.567Z,8
2017-11-14T06:19:40.103Z,8
2017-11-14T06:20:20.656Z,8
2017-11-14T06:21:01.166Z,8
2017-11-14T06:21:41.742Z,8
2017-11-14T06:22:22.339Z,12
2017-11-14T06:23:02.914Z,12
2017-11-14T06:23:43.370Z,12
2017-11-14T06:24:23.935Z,16
2017-11-14T06:25:04.477Z,16
2017-11-14T06:25:45.065Z,16
2017-11-14T06:26:25.587Z,20
2017-11-14T06:27:06.126Z,20
2017-11-14T06:27:46.642Z,20
2017-11-14T06:28:27.308Z,24
2017-11-14T06:29:07.888Z,24
2017-11-14T06:29:48.366Z,24
2017-11-14T06:30:29.073Z,32
2017-11-14T06:31:09.594Z,32
2017-11-14T06:31:50.411Z,32
2017-11-14T06:32:31.151Z,36
2017-11-14T06:33:11.758Z,36
2017-11-14T06:33:52.268Z,40
2017-11-14T06:34:32.968Z,44
2017-11-14T06:35:13.512Z,44
2017-11-14T06:35:54.054Z,48
2017-11-14T06:36:34.630Z,52
2017-11-14T06:37:15.184Z,56
2017-11-14T06:37:55.872Z,60
2017-11-14T06:38:36.658Z,64
2017-11-14T06:39:17.209Z,72
2017-11-14T06:39:58.229Z,76
2017-11-14T06:40:38.774Z,84
2017-11-14T06:41:19.324Z,88
2017-11-14T06:41:59.855Z,96
2017-11-14T06:42:40.444Z,104
2017-11-14T06:43:20.996Z,108
2017-11-14T06:44:01.551Z,116
2017-11-14T06:44:42.097Z,120
2017-11-14T06:45:22.642Z,124
2017-11-14T06:46:03.167Z,132
2017-11-14T06:46:44.371Z,140
2017-11-14T06:47:25.262Z,148
2017-11-14T06:48:05.857Z,152
2017-11-14T06:48:46.414Z,160
2017-11-14T06:49:26.973Z,168
2017-11-14T06:50:07.493Z,176
2017-11-14T06:50:48.073Z,188
2017-11-14T06:51:28.614Z,196
2017-11-14T06:52:09.196Z,208
2017-11-14T06:52:49.716Z,216
2017-11-14T06:53:30.362Z,228
2017-11-14T06:54:10.912Z,240
2017-11-14T06:54:51.466Z,248
2017-11-14T06:55:32.070Z,260
2017-11-14T06:56:12.524Z,272
2017-11-14T06:56:53.095Z,280
2017-11-14T06:57:33.598Z,296
2017-11-14T06:58:14.164Z,316
2017-11-14T06:58:54.756Z,340
2017-11-14T06:59:35.346Z,360
2017-11-14T07:00:15.833Z,380
2017-11-14T07:00:56.376Z,400
2017-11-14T07:01:36.975Z,416
2017-11-14T07:02:17.452Z,436
2017-11-14T07:02:58.063Z,456
2017-11-14T07:03:38.677Z,468
2017-11-14T07:04:19.212Z,484
2017-11-14T07:04:59.781Z,500
2017-11-14T07:05:40.398Z,512
2017-11-14T07:06:20.947Z,524
2017-11-14T07:07:01.523Z,540
2017-11-14T07:07:42.033Z,552
2017-11-14T07:08:22.576Z,572
2017-11-14T07:09:03.123Z,592
2017-11-14T07:09:43.638Z,620
2017-11-14T07:10:24.327Z,604
2017-11-14T07:11:04.845Z,620
2017-11-14T07:11:45.719Z,664
2017-11-14T07:12:26.215Z,696
2017-11-14T07:13:06.758Z,708
2017-11-14T07:13:47.256Z,720
2017-11-14T07:14:27.837Z,736
2017-11-14T07:15:08.323Z,756
2017-11-14T07:15:48.856Z,780
2017-11-14T07:16:29.391Z,820
2017-11-14T07:17:09.938Z,816
2017-11-14T07:17:50.496Z,832
2017-11-14T07:18:31.012Z,852
2017-11-14T07:19:11.514Z,860
2017-11-14T07:19:52.069Z,864
2017-11-14T07:20:32.635Z,872
2017-11-14T07:21:13.194Z,876
2017-11-14T07:21:53.803Z,892
2017-11-14T07:22:34.636Z,916
2017-11-14T07:23:15.334Z,880
2017-11-14T07:23:55.896Z,912
2017-11-14T07:24:36.434Z,904
2017-11-14T07:25:16.969Z,940
2017-11-14T07:25:57.536Z,940
2017-11-14T07:26:38.204Z,976
2017-11-14T07:27:18.778Z,1008
2017-11-14T07:27:59.366Z,1008
2017-11-14T07:28:39.891Z,1040
2017-11-14T07:29:20.515Z,1080
2017-11-14T07:30:01.132Z,1084
2017-11-14T07:30:41.678Z,1092
2017-11-14T07:31:22.209Z,1112
2017-11-14T07:32:02.760Z,1144
2017-11-14T07:32:43.278Z,1160
2017-11-14T07:33:23.849Z,1176
2017-11-14T07:34:04.348Z,1204
2017-11-14T07:34:45.024Z,1232
2017-11-14T07:35:25.546Z,1268
2017-11-14T07:36:06.077Z,1308
2017-11-14T07:36:46.771Z,1300
2017-11-14T07:37:27.361Z,1296
2017-11-14T07:38:07.907Z,1316
2017-11-14T07:38:48.482Z,1332
2017-11-14T07:39:28.977Z,1376
2017-11-14T07:40:09.540Z,1416
2017-11-14T07:40:50.032Z,1456
2017-11-14T07:41:30.620Z,1476
2017-11-14T07:42:11.155Z,1496
2017-11-14T07:42:51.794Z,1500
2017-11-14T07:43:32.389Z,1520
2017-11-14T07:44:12.931Z,1540
2017-11-14T07:44:53.512Z,1576
2017-11-14T07:45:34.009Z,1632
2017-11-14T07:46:14.550Z,1668
2017-11-14T07:46:55.097Z,1652
2017-11-14T07:47:35.592Z,1600
2017-11-14T07:48:16.205Z,1580
2017-11-14T07:48:56.857Z,1556
2017-11-14T07:49:37.437Z,1552
2017-11-14T07:50:18.144Z,1532
2017-11-14T07:50:58.829Z,1532
2017-11-14T07:51:39.437Z,1572
2017-11-14T07:52:19.896Z,1672
2017-11-14T07:53:00.764Z,1828
2017-11-14T07:53:41.517Z,1924
2017-11-14T07:54:22.428Z,1884
2017-11-14T07:55:02.921Z,1744
2017-11-14T07:55:43.477Z,1616
2017-11-14T07:56:24.020Z,1528
2017-11-14T07:57:04.568Z,1512
2017-11-14T07:57:45.101Z,1564
2017-11-14T07:58:25.699Z,1648
2017-11-14T07:59:06.295Z,1780
2017-11-14T07:59:46.936Z,1924
2017-11-14T08:00:27.456Z,2004
2017-11-14T08:01:07.996Z,1964
2017-11-14T08:01:48.576Z,1856
2017-11-14T08:02:29.179Z,1740
2017-11-14T08:03:09.744Z,1660
2017-11-14T08:03:50.543Z,1644
2017-11-14T08:04:31.082Z,1648
2017-11-14T08:05:11.686Z,1660
2017-11-14T08:05:52.241Z,1692
2017-11-14T08:06:32.912Z,1716
2017-11-14T08:07:13.498Z,1652
2017-11-14T08:07:54.083Z,1580
2017-11-14T08:08:34.598Z,1572
2017-11-14T08:09:15.193Z,1596
2017-11-14T08:09:55.766Z,1628
2017-11-14T08:10:36.280Z,1640
2017-11-14T08:11:16.807Z,1708
2017-11-14T08:11:57.388Z,1732
2017-11-14T08:12:37.938Z,1712
2017-11-14T08:13:18.472Z,1700
2017-11-14T08:13:59.059Z,1676
2017-11-14T08:14:39.565Z,1676
2017-11-14T08:15:20.123Z,1672
2017-11-14T08:16:00.665Z,1688
2017-11-14T08:16:41.199Z,1764
2017-11-14T08:17:21.752Z,1884
2017-11-14T08:18:02.274Z,2012
2017-11-14T08:18:42.832Z,2112
2017-11-14T08:19:23.596Z,2188
2017-11-14T08:20:04.184Z,2140
2017-11-14T08:20:44.721Z,2152
2017-11-14T08:21:25.286Z,2144
2017-11-14T08:22:05.795Z,2052
2017-11-14T08:22:46.363Z,2024
2017-11-14T08:23:26.955Z,2016
2017-11-14T08:24:07.471Z,2008
2017-11-14T08:24:48.090Z,2032
2017-11-14T08:25:28.623Z,2048
2017-11-14T08:26:09.148Z,2072
2017-11-14T08:26:49.659Z,2084
2017-11-14T08:27:30.249Z,2084
2017-11-14T08:28:10.740Z,2096
2017-11-14T08:28:51.295Z,2080
2017-11-14T08:29:31.857Z,2092
2017-11-14T08:30:12.375Z,2108
2017-11-14T08:30:52.936Z,2108
2017-11-14T08:31:33.461Z,2092
2017-11-14T08:32:14.067Z,2068
2017-11-14T08:32:54.550Z,2052
2017-11-14T08:33:35.128Z,2032
2017-11-14T08:34:15.703Z,2028
2017-11-14T08:34:56.180Z,1960
2017-11-14T08:35:36.729Z,1956
2017-11-14T08:36:17.270Z,1948
2017-11-14T08:36:57.768Z,1980
2017-11-14T08:37:38.364Z,1964
2017-11-14T08:38:19.016Z,1952
2017-11-14T08:38:59.540Z,1968
2017-11-14T08:39:40.102Z,1932
2017-11-14T08:40:20.618Z,1876
2017-11-14T08:41:01.222Z,1800
2017-11-14T08:41:41.859Z,1804
2017-11-14T08:42:22.341Z,1816
2017-11-14T08:43:02.968Z,1820
2017-11-14T08:43:43.508Z,1880
2017-11-14T08:44:24.009Z,2012
2017-11-14T08:45:04.678Z,2160
2017-11-14T08:45:45.309Z,2200
2017-11-14T08:46:25.850Z,2228
2017-11-14T08:47:06.305Z,2308
2017-11-14T08:47:46.883Z,2368
2017-11-14T08:48:27.463Z,2384
2017-11-14T08:49:07.987Z,2368
2017-11-14T08:49:48.552Z,2292
2017-11-14T08:50:29.101Z,2204
2017-11-14T08:51:09.624Z,2208
2017-11-14T08:51:50.174Z,2308
2017-11-14T08:52:30.686Z,2468
2017-11-14T08:53:11.250Z,2616
2017-11-14T08:53:51.743Z,2632
2017-11-14T08:54:32.412Z,2532
2017-11-14T08:55:12.906Z,2464
2017-11-14T08:55:53.654Z,2536
2017-11-14T08:56:34.044Z,2748
2017-11-14T08:57:14.566Z,2976
2017-11-14T08:57:55.154Z,3132
2017-11-14T08:58:35.743Z,3156
2017-11-14T08:59:16.324Z,3092
2017-11-14T08:59:56.871Z,2872
2017-11-14T09:00:37.360Z,2604
2017-11-14T09:01:17.889Z,2424
2017-11-14T09:01:58.453Z,2372
2017-11-14T09:02:38.978Z,2348
2017-11-14T09:03:19.481Z,2280
2017-11-14T09:04:00.142Z,2244
2017-11-14T09:04:40.590Z,2268
2017-11-14T09:05:21.110Z,2352
2017-11-14T09:06:01.671Z,2416
2017-11-14T09:06:42.215Z,2484
2017-11-14T09:07:22.782Z,2536
2017-11-14T09:08:03.276Z,2588
2017-11-14T09:08:43.907Z,2704
2017-11-14T09:09:24.461Z,2772
2017-11-14T09:10:04.996Z,2728
2017-11-14T09:10:45.605Z,2644
2017-11-14T09:11:26.640Z,2392
2017-11-14T09:12:06.664Z,2336
2017-11-14T09:12:47.252Z,2428
2017-11-14T09:13:27.782Z,2580
2017-11-14T09:14:08.324Z,2932
2017-11-14T09:14:48.868Z,3128
2017-11-14T09:15:29.397Z,3232
2017-11-14T09:16:09.936Z,3284
2017-11-14T09:16:50.501Z,3260
2017-11-14T09:17:31.055Z,3224
2017-11-14T09:18:11.659Z,3224
2017-11-14T09:18:52.189Z,3196
2017-11-14T09:19:32.783Z,3152
2017-11-14T09:20:13.323Z,3068
2017-11-14T09:20:53.856Z,2916
2017-11-14T09:21:34.374Z,2844
2017-11-14T09:22:14.918Z,2868
2017-11-14T09:22:55.464Z,2868
2017-11-14T09:23:36.026Z,2928
2017-11-14T09:24:16.594Z,2948
2017-11-14T09:24:57.056Z,2988
2017-11-14T09:25:37.601Z,3012
2017-11-14T09:26:18.103Z,2972
2017-11-14T09:26:58.643Z,2908
2017-11-14T09:27:39.178Z,2888
2017-11-14T09:28:19.707Z,2844
2017-11-14T09:29:00.262Z,2828
2017-11-14T09:29:40.816Z,2824
2017-11-14T09:30:21.368Z,2808
2017-11-14T09:31:01.949Z,2852
2017-11-14T09:31:42.522Z,2892
2017-11-14T09:32:22.984Z,2936
2017-11-14T09:33:03.511Z,2896
2017-11-14T09:33:44.805Z,2904
2017-11-14T09:34:25.390Z,2848
2017-11-14T09:35:05.930Z,2808
2017-11-14T09:35:46.449Z,2816
2017-11-14T09:36:27.017Z,2736
2017-11-14T09:37:07.541Z,2580
2017-11-14T09:37:48.207Z,2444
2017-11-14T09:38:28.751Z,2344
2017-11-14T09:39:09.260Z,2236
2017-11-14T09:39:49.789Z,2164
2017-11-14T09:40:30.343Z,2100
2017-11-14T09:41:10.901Z,2084
2017-11-14T09:41:51.425Z,2108